createdAt,value
2018-06-03T00:01:56.773Z,98657.73
2018-06-03T00:04:07.908Z,98651.40
2018-06-03T00:06:18.995Z,98649.78
2018-06-03T00:08:30.114Z,98651.65
2018-06-03T00:10:41.305Z,98652.88
2018-06-03T00:12:52.458Z,98654.61
2018-06-03T00:15:03.632Z,98653.45
2018-06-03T00:17:14.772Z,98658.33
2018-06-03T00:19:25.960Z,98662.52
2018-06-03T00:21:42.134Z,98667.11
2018-06-03T00:23:53.246Z,98666.77
2018-06-03T00:26:04.352Z,98664.23
2018-06-03T00:28:15.570Z,98672.36
2018-06-03T00:30:26.643Z,98670.49
2018-06-03T00:32:37.766Z,98668.76
2018-06-03T00:34:48.835Z,98674.59
2018-06-03T00:36:59.930Z,98668.34
2018-06-03T00:39:11.018Z,98671.12
2018-06-03T00:41:22.128Z,98662.16
2018-06-03T00:43:33.350Z,98660.48
2018-06-03T00:45:44.473Z,98661.09
2018-06-03T00:47:55.635Z,98658.06
2018-06-03T00:50:06.715Z,98659.97
2018-06-03T00:52:17.802Z,98656.89
2018-06-03T00:54:28.882Z,98654.02
2018-06-03T00:56:52.175Z,98657.98
2018-06-03T00:59:03.242Z,98653.80
2018-06-03T01:01:14.325Z,98658.64
2018-06-03T01:03:25.427Z,98651.59
2018-06-03T01:05:36.507Z,98651.56
2018-06-03T01:07:47.619Z,98652.27
2018-06-03T01:09:58.677Z,98649.19
2018-06-03T01:12:09.789Z,98646.66
2018-06-03T01:14:20.913Z,98648.08
2018-06-03T01:16:32.075Z,98651.84
2018-06-03T01:18:43.226Z,98651.73
2018-06-03T01:20:54.314Z,98649.05
2018-06-03T01:23:05.363Z,98648.05
2018-06-03T01:25:16.529Z,98648.77
2018-06-03T01:27:27.751Z,98648.94
2018-06-03T01:29:38.884Z,98652.46
2018-06-03T01:31:50.122Z,98650.02
2018-06-03T01:34:01.287Z,98646.94
2018-06-03T01:36:12.354Z,98643.97
2018-06-03T01:38:23.439Z,98647.91
2018-06-03T01:40:34.581Z,98639.14
2018-06-03T01:42:45.726Z,98635.81
2018-06-03T01:44:56.891Z,98642.13
2018-06-03T01:47:08.010Z,98639.78
2018-06-03T01:49:19.099Z,98640.37
2018-06-03T01:51:30.199Z,98642.81
2018-06-03T01:53:41.276Z,98641.04
2018-06-03T01:55:52.429Z,98640.48
2018-06-03T01:58:03.514Z,98634.76
2018-06-03T02:00:14.603Z,98640.08
2018-06-03T02:02:25.790Z,98632.45
2018-06-03T02:04:36.891Z,98632.03
2018-06-03T02:06:48.219Z,98629.16
2018-06-03T02:08:59.339Z,98626.95
2018-06-03T02:11:10.447Z,98619.80
2018-06-03T02:13:21.523Z,98619.77
2018-06-03T02:15:32.660Z,98621.01
2018-06-03T02:17:43.778Z,98614.20
2018-06-03T02:19:54.902Z,98613.81
2018-06-03T02:22:05.969Z,98615.41
2018-06-03T02:24:17.059Z,98614.03
2018-06-03T02:26:28.243Z,98611.06
2018-06-03T02:28:39.350Z,98608.44
2018-06-03T02:30:50.566Z,98607.25
2018-06-03T02:33:01.660Z,98608.44
2018-06-03T02:35:12.758Z,98606.22
2018-06-03T02:37:23.830Z,98604.98
2018-06-03T02:39:34.953Z,98606.84
2018-06-03T02:41:46.067Z,98608.56
2018-06-03T02:43:57.163Z,98605.05
2018-06-03T02:46:08.348Z,98611.43
2018-06-03T02:48:19.447Z,98614.28
2018-06-03T02:50:30.531Z,98616.56
2018-06-03T02:52:41.594Z,98610.83
2018-06-03T02:54:52.779Z,98615.72
2018-06-03T02:57:03.919Z,98611.41
2018-06-03T02:59:14.994Z,98613.20
2018-06-03T03:01:26.160Z,98608.20
2018-06-03T03:03:37.251Z,98609.52
2018-06-03T03:05:48.459Z,98609.98
2018-06-03T03:07:59.543Z,98608.98
2018-06-03T03:10:10.798Z,98601.90
2018-06-03T03:12:21.869Z,98604.28
2018-06-03T03:14:32.995Z,98600.99
2018-06-03T03:16:44.075Z,98600.64
2018-06-03T03:18:55.204Z,98601.61
2018-06-03T03:21:06.351Z,98603.05
2018-06-03T03:23:17.431Z,98598.84
2018-06-03T03:25:28.561Z,98599.00
2018-06-03T03:27:39.681Z,98599.47
2018-06-03T03:29:50.874Z,98600.06
2018-06-03T03:32:01.947Z,98602.92
2018-06-03T03:34:13.034Z,98608.74
2018-06-03T03:36:24.150Z,98612.92
2018-06-03T03:38:35.253Z,98613.98
2018-06-03T03:40:46.430Z,98617.44
2018-06-03T03:42:57.588Z,98621.91
2018-06-03T03:45:08.797Z,98620.13
2018-06-03T03:47:19.930Z,98619.97
2018-06-03T03:49:31.093Z,98615.55
2018-06-03T03:51:42.210Z,98621.98
2018-06-03T03:53:53.341Z,98621.40
2018-06-03T03:56:04.428Z,98628.78
2018-06-03T03:58:15.494Z,98628.95
2018-06-03T04:00:26.640Z,98620.20
2018-06-03T04:02:37.686Z,98619.53
2018-06-03T04:04:48.874Z,98623.30
2018-06-03T04:07:00.099Z,98627.35
2018-06-03T04:09:11.240Z,98623.85
2018-06-03T04:11:22.388Z,98633.41
2018-06-03T04:13:33.467Z,98643.72
2018-06-03T04:15:44.658Z,98634.72
2018-06-03T04:17:55.731Z,98638.97
2018-06-03T04:20:06.866Z,98636.86
2018-06-03T04:22:18.135Z,98640.35
2018-06-03T04:24:29.271Z,98644.44
2018-06-03T04:26:40.408Z,98641.59
2018-06-03T04:28:51.520Z,98644.52
2018-06-03T04:31:02.815Z,98648.74
2018-06-03T04:33:13.899Z,98647.83
2018-06-03T04:35:25.001Z,98649.66
2018-06-03T04:37:36.094Z,98648.90
2018-06-03T04:39:47.170Z,98657.91
2018-06-03T04:41:58.295Z,98656.28
2018-06-03T04:44:09.389Z,98659.32
2018-06-03T04:46:20.496Z,98660.95
2018-06-03T04:48:31.583Z,98667.20
2018-06-03T04:50:42.684Z,98662.03
2018-06-03T04:52:53.769Z,98656.38
2018-06-03T04:55:04.920Z,98656.84
2018-06-03T04:57:15.964Z,98652.00
2018-06-03T04:59:27.066Z,98657.14
2018-06-03T05:01:38.150Z,98654.82
2018-06-03T05:03:49.243Z,98652.30
2018-06-03T05:06:00.370Z,98642.45
2018-06-03T05:08:11.508Z,98643.30
2018-06-03T05:10:22.690Z,98649.11
2018-06-03T05:12:33.736Z,98646.34
2018-06-03T05:14:44.932Z,98641.64
2018-06-03T05:16:56.001Z,98646.42
2018-06-03T05:19:07.138Z,98642.20
2018-06-03T05:21:18.289Z,98643.72
2018-06-03T05:23:29.413Z,98648.55
2018-06-03T05:25:40.635Z,98647.39
2018-06-03T05:27:51.732Z,98646.95
2018-06-03T05:30:02.991Z,98645.01
2018-06-03T05:32:14.091Z,98641.97
2018-06-03T05:34:25.143Z,98646.37
2018-06-03T05:36:36.227Z,98646.59
2018-06-03T05:38:47.312Z,98644.70
2018-06-03T05:40:58.464Z,98651.67
2018-06-03T05:43:09.558Z,98645.54
2018-06-03T05:45:20.663Z,98640.94
2018-06-03T05:47:31.771Z,98640.91
2018-06-03T05:49:42.906Z,98639.20
2018-06-03T05:51:53.979Z,98638.16
2018-06-03T05:54:05.072Z,98637.75
2018-06-03T05:56:16.191Z,98636.84
2018-06-03T05:59:05.855Z,98643.00
2018-06-03T06:01:18.246Z,98646.63
2018-06-03T06:03:30.831Z,98645.37
2018-06-03T06:05:43.232Z,98643.91
2018-06-03T06:07:55.655Z,98645.00
2018-06-03T06:10:08.077Z,98648.15
2018-06-03T06:12:20.519Z,98648.59
2018-06-03T06:14:33.000Z,98649.73
2018-06-03T06:16:45.410Z,98648.36
2018-06-03T06:18:57.811Z,98650.89
2018-06-03T06:21:10.237Z,98649.38
2018-06-03T06:23:22.698Z,98642.79
2018-06-03T06:25:35.050Z,98644.47
2018-06-03T06:27:47.622Z,98642.45
2018-06-03T06:30:00.262Z,98640.12
2018-06-03T06:32:12.716Z,98640.59
2018-06-03T06:34:25.091Z,98644.59
2018-06-03T06:36:37.486Z,98647.18
2018-06-03T06:38:49.932Z,98641.34
2018-06-03T06:41:02.317Z,98647.89
2018-06-03T06:43:14.707Z,98654.50
2018-06-03T06:45:27.108Z,98651.27
2018-06-03T06:47:39.508Z,98652.95
2018-06-03T06:49:51.911Z,98654.75
2018-06-03T06:52:04.663Z,98660.53
2018-06-03T06:54:17.048Z,98662.97
2018-06-03T06:56:29.427Z,98664.53
2018-06-03T06:58:41.850Z,98657.78
2018-06-03T07:00:54.319Z,98670.64
2018-06-03T07:03:06.812Z,98665.70
2018-06-03T07:05:19.194Z,98663.90
2018-06-03T07:07:31.543Z,98661.02
2018-06-03T07:09:43.927Z,98661.06
2018-06-03T07:11:56.332Z,98660.40
2018-06-03T07:14:08.860Z,98650.14
2018-06-03T07:16:21.237Z,98650.41
2018-06-03T07:18:33.812Z,98652.02
2018-06-03T07:20:46.311Z,98650.98
2018-06-03T07:22:58.944Z,98651.59
2018-06-03T07:25:11.351Z,98644.95
2018-06-03T07:27:23.763Z,98655.54
2018-06-03T07:29:36.126Z,98654.11
2018-06-03T07:31:48.804Z,98653.86
2018-06-03T07:34:01.191Z,98648.92
2018-06-03T07:36:13.603Z,98640.63
2018-06-03T07:38:25.982Z,98644.15
2018-06-03T07:40:38.472Z,98641.61
2018-06-03T07:42:50.955Z,98636.34
2018-06-03T07:45:03.392Z,98635.31
2018-06-03T07:47:15.787Z,98635.92
2018-06-03T07:49:28.182Z,98641.92
2018-06-03T07:51:40.567Z,98639.00
2018-06-03T07:53:53.087Z,98642.59
2018-06-03T07:56:05.475Z,98641.72
2018-06-03T07:58:17.911Z,98638.28
2018-06-03T08:00:30.372Z,98639.58
2018-06-03T08:02:42.814Z,98641.81
2018-06-03T08:04:55.387Z,98633.52
2018-06-03T08:07:08.006Z,98637.17
2018-06-03T08:09:20.520Z,98636.07
2018-06-03T08:11:32.896Z,98629.86
2018-06-03T08:13:45.516Z,98630.31
2018-06-03T08:15:57.823Z,98625.88
2018-06-03T08:18:10.307Z,98628.55
2018-06-03T08:20:22.846Z,98625.08
2018-06-03T08:22:35.182Z,98621.92
2018-06-03T08:24:47.783Z,98621.99
2018-06-03T08:27:00.178Z,98615.83
2018-06-03T08:29:12.611Z,98617.85
2018-06-03T08:31:25.085Z,98610.50
2018-06-03T08:33:37.458Z,98617.34
2018-06-03T08:35:49.970Z,98618.03
2018-06-03T08:38:02.310Z,98612.73
2018-06-03T08:40:14.727Z,98610.33
2018-06-03T08:42:27.323Z,98606.84
2018-06-03T08:44:39.696Z,98606.39
2018-06-03T08:46:52.135Z,98609.64
2018-06-03T08:49:04.508Z,98604.98
2018-06-03T08:51:17.027Z,98607.97
2018-06-03T08:53:29.510Z,98602.59
2018-06-03T08:55:41.879Z,98603.78
2018-06-03T08:57:54.231Z,98596.34
2018-06-03T09:00:06.603Z,98596.70
2018-06-03T09:02:19.257Z,98595.02
2018-06-03T09:04:31.611Z,98595.77
2018-06-03T09:06:44.027Z,98600.73
2018-06-03T09:08:56.441Z,98595.37
2018-06-03T09:11:08.881Z,98586.47
2018-06-03T09:13:21.309Z,98586.38
2018-06-03T09:15:33.762Z,98583.98
2018-06-03T09:17:46.255Z,98586.25
2018-06-03T09:19:58.669Z,98586.90
2018-06-03T09:22:11.087Z,98579.45
2018-06-03T09:24:23.579Z,98575.02
2018-06-03T09:26:36.143Z,98573.69
2018-06-03T09:28:48.587Z,98566.66
2018-06-03T09:31:08.668Z,98563.13
2018-06-03T09:33:21.121Z,98566.69
2018-06-03T09:35:33.594Z,98565.39
2018-06-03T09:37:45.963Z,98564.23
2018-06-03T09:39:58.342Z,98564.59
2018-06-03T09:42:10.714Z,98561.71
2018-06-03T09:44:23.244Z,98561.30
2018-06-03T09:46:35.586Z,98564.45
2018-06-03T09:48:48.105Z,98567.12
2018-06-03T09:51:00.610Z,98561.27
2018-06-03T09:53:13.082Z,98557.07
2018-06-03T09:55:25.497Z,98554.20
2018-06-03T09:57:37.910Z,98553.69
2018-06-03T09:59:50.332Z,98555.91
2018-06-03T10:02:02.824Z,98548.41
2018-06-03T10:04:15.304Z,98553.00
2018-06-03T10:06:27.757Z,98544.56
2018-06-03T10:08:40.126Z,98539.40
2018-06-03T10:10:52.530Z,98527.77
2018-06-03T10:13:04.955Z,98536.63
2018-06-03T10:15:17.363Z,98538.09
2018-06-03T10:17:29.810Z,98536.81
2018-06-03T10:19:42.288Z,98530.48
2018-06-03T10:21:54.696Z,98532.83
2018-06-03T10:24:07.059Z,98533.03
2018-06-03T10:26:19.486Z,98526.02
2018-06-03T10:28:31.926Z,98526.64
2018-06-03T10:30:44.319Z,98529.43
2018-06-03T10:32:56.722Z,98523.44
2018-06-03T10:35:09.162Z,98523.44
2018-06-03T10:37:21.653Z,98521.19
2018-06-03T10:39:34.112Z,98522.58
2018-06-03T10:41:46.549Z,98519.48
2018-06-03T10:43:58.948Z,98514.48
2018-06-03T10:46:11.399Z,98519.39
2018-06-03T10:48:23.861Z,98523.53
2018-06-03T10:50:36.227Z,98521.00
2018-06-03T10:52:48.615Z,98522.20
2018-06-03T10:55:01.010Z,98528.30
2018-06-03T10:57:13.471Z,98522.35
2018-06-03T10:59:25.881Z,98516.98
2018-06-03T11:01:38.284Z,98514.87
2018-06-03T11:03:50.674Z,98514.42
2018-06-03T11:06:03.189Z,98510.23
2018-06-03T11:08:15.623Z,98509.73
2018-06-03T11:10:28.138Z,98507.15
2018-06-03T11:12:40.536Z,98503.73
2018-06-03T11:14:52.979Z,98503.84
2018-06-03T11:17:05.407Z,98502.12
2018-06-03T11:19:17.911Z,98502.52
2018-06-03T11:21:30.328Z,98501.45
2018-06-03T11:23:42.688Z,98490.59
2018-06-03T11:25:55.092Z,98489.00
2018-06-03T11:28:07.499Z,98489.36
2018-06-03T11:30:20.008Z,98483.20
2018-06-03T11:32:32.426Z,98479.90
2018-06-03T11:34:44.905Z,98474.73
2018-06-03T11:36:57.363Z,98478.44
2018-06-03T11:39:09.783Z,98471.52
2018-06-03T11:41:22.134Z,98471.33
2018-06-03T11:43:34.633Z,98475.25
2018-06-03T11:45:47.064Z,98471.05
2018-06-03T11:47:59.455Z,98472.56
2018-06-03T11:50:11.999Z,98477.48
2018-06-03T11:52:24.431Z,98472.78
2018-06-03T11:54:36.914Z,98469.31
2018-06-03T11:56:59.876Z,98466.86
2018-06-03T11:59:23.604Z,98474.71
2018-06-03T12:01:36.186Z,98467.75
2018-06-03T12:03:48.671Z,98463.36
2018-06-03T12:06:01.069Z,98464.99
2018-06-03T12:08:13.513Z,98461.55
2018-06-03T12:10:26.033Z,98456.96
2018-06-03T12:12:39.322Z,98453.41
2018-06-03T12:14:51.774Z,98450.25
2018-06-03T12:17:04.216Z,98443.64
2018-06-03T12:19:16.643Z,98436.70
2018-06-03T12:21:29.755Z,98435.25
2018-06-03T12:23:42.189Z,98431.39
2018-06-03T12:25:54.639Z,98427.51
2018-06-03T12:28:07.080Z,98428.41
2018-06-03T12:30:19.511Z,98428.80
2018-06-03T12:32:31.887Z,98420.75
2018-06-03T12:34:44.233Z,98419.66
2018-06-03T12:36:56.656Z,98410.82
2018-06-03T12:39:09.563Z,98401.77
2018-06-03T12:41:22.030Z,98404.88
2018-06-03T12:43:34.507Z,98403.31
2018-06-03T12:45:46.898Z,98393.84
2018-06-03T12:47:59.391Z,98393.84
2018-06-03T12:50:11.839Z,98399.39
2018-06-03T12:52:24.288Z,98395.08
2018-06-03T12:54:36.714Z,98386.94
2018-06-03T12:56:49.212Z,98383.45
2018-06-03T12:59:01.671Z,98378.62
2018-06-03T13:01:14.074Z,98375.75
2018-06-03T13:03:26.512Z,98375.03
2018-06-03T13:05:38.941Z,98379.97
2018-06-03T13:07:51.365Z,98378.91
2018-06-03T13:10:03.811Z,98375.94
2018-06-03T13:12:16.193Z,98377.06
2018-06-03T13:14:28.658Z,98377.30
2018-06-03T13:16:41.085Z,98371.44
2018-06-03T13:18:53.554Z,98367.73
2018-06-03T13:21:05.886Z,98370.19
2018-06-03T13:23:18.385Z,98367.12
2018-06-03T13:25:30.799Z,98361.84
2018-06-03T13:27:43.265Z,98362.34
2018-06-03T13:29:55.804Z,98359.85
2018-06-03T13:32:08.290Z,98360.27
2018-06-03T13:34:20.693Z,98354.75
2018-06-03T13:36:33.072Z,98354.56
2018-06-03T13:38:45.518Z,98355.08
2018-06-03T13:40:58.019Z,98345.58
2018-06-03T13:43:10.438Z,98343.72
2018-06-03T13:45:22.914Z,98346.94
2018-06-03T13:47:35.307Z,98340.13
2018-06-03T13:49:47.733Z,98337.69
2018-06-03T13:52:00.156Z,98328.80
2018-06-03T13:54:12.602Z,98331.69
2018-06-03T13:56:25.056Z,98324.07
2018-06-03T13:58:37.399Z,98320.48
2018-06-03T14:00:49.827Z,98314.60
2018-06-03T14:03:02.211Z,98318.62
2018-06-03T14:05:14.676Z,98318.41
2018-06-03T14:07:27.041Z,98311.56
2018-06-03T14:09:39.535Z,98313.09
2018-06-03T14:11:51.974Z,98307.02
2018-06-03T14:14:04.460Z,98302.27
2018-06-03T14:16:16.963Z,98301.67
2018-06-03T14:18:29.359Z,98303.07
2018-06-03T14:20:41.866Z,98295.47
2018-06-03T14:22:54.255Z,98293.20
2018-06-03T14:25:06.623Z,98291.05
2018-06-03T14:27:19.075Z,98286.73
2018-06-03T14:29:31.428Z,98280.75
2018-06-03T14:31:43.894Z,98288.46
2018-06-03T14:33:56.258Z,98284.48
2018-06-03T14:36:08.671Z,98290.98
2018-06-03T14:38:21.087Z,98290.05
2018-06-03T14:40:33.451Z,98278.11
2018-06-03T14:42:45.884Z,98278.52
2018-06-03T14:44:58.281Z,98279.50
2018-06-03T14:47:10.733Z,98276.20
2018-06-03T14:49:23.092Z,98273.16
2018-06-03T14:51:35.486Z,98275.50
2018-06-03T14:53:47.959Z,98278.99
2018-06-03T14:56:00.386Z,98272.53
2018-06-03T14:58:12.867Z,98266.84
2018-06-03T15:00:25.245Z,98268.92
2018-06-03T15:02:37.674Z,98269.69
2018-06-03T15:04:50.170Z,98271.75
2018-06-03T15:07:02.653Z,98265.59
2018-06-03T15:09:15.020Z,98262.62
2018-06-03T15:11:27.368Z,98257.05
2018-06-03T15:13:39.790Z,98263.14
2018-06-03T15:15:52.236Z,98260.98
2018-06-03T15:18:04.744Z,98258.50
2018-06-03T15:20:17.184Z,98249.44
2018-06-03T15:22:29.632Z,98246.16
2018-06-03T15:24:42.061Z,98241.75
2018-06-03T15:26:54.483Z,98238.34
2018-06-03T15:29:06.941Z,98242.54
2018-06-03T15:31:19.303Z,98237.20
2018-06-03T15:33:31.678Z,98238.75
2018-06-03T15:35:44.175Z,98230.73
2018-06-03T15:37:56.734Z,98230.73
2018-06-03T15:40:09.155Z,98224.98
2018-06-03T15:42:21.516Z,98226.83
2018-06-03T15:44:33.903Z,98224.45
2018-06-03T15:46:46.320Z,98223.53
2018-06-03T15:48:58.797Z,98223.53
2018-06-03T15:51:11.489Z,98218.00
2018-06-03T15:53:24.075Z,98220.16
2018-06-03T15:55:36.725Z,98211.50
2018-06-03T15:57:49.095Z,98212.65
2018-06-03T16:00:01.499Z,98211.20
2018-06-03T16:02:13.923Z,98206.27
2018-06-03T16:04:26.362Z,98201.66
2018-06-03T16:06:38.883Z,98196.84
2018-06-03T16:08:51.323Z,98202.59
2018-06-03T16:11:03.715Z,98198.77
2018-06-03T16:13:16.165Z,98197.44
2018-06-03T16:15:28.615Z,98192.72
2018-06-03T16:17:41.123Z,98184.19
2018-06-03T16:19:53.556Z,98181.22
2018-06-03T16:22:05.924Z,98185.00
2018-06-03T16:24:18.412Z,98184.19
2018-06-03T16:26:30.830Z,98185.63
2018-06-03T16:28:43.290Z,98185.11
2018-06-03T16:30:55.719Z,98186.34
2018-06-03T16:33:08.108Z,98180.37
2018-06-03T16:35:20.578Z,98180.29
2018-06-03T16:37:32.968Z,98185.63
2018-06-03T16:39:45.345Z,98187.89
2018-06-03T16:41:57.677Z,98185.00
2018-06-03T16:44:10.191Z,98182.66
2018-06-03T16:46:22.679Z,98183.26
2018-06-03T16:48:35.160Z,98179.95
2018-06-03T16:50:47.582Z,98179.88
2018-06-03T16:53:00.035Z,98178.02
2018-06-03T16:55:12.468Z,98183.66
2018-06-03T16:57:24.843Z,98174.09
2018-06-03T16:59:37.384Z,98171.13
2018-06-03T17:01:49.740Z,98175.31
2018-06-03T17:04:02.109Z,98171.02
2018-06-03T17:06:14.506Z,98177.40
2018-06-03T17:08:26.851Z,98182.13
2018-06-03T17:10:39.248Z,98175.75
2018-06-03T17:12:51.644Z,98179.22
2018-06-03T17:15:04.225Z,98177.26
2018-06-03T17:17:16.600Z,98179.40
2018-06-03T17:19:29.454Z,98174.80
2018-06-03T17:21:41.856Z,98176.73
2018-06-03T17:23:54.294Z,98177.02
2018-06-03T17:26:06.699Z,98173.53
2018-06-03T17:28:19.142Z,98177.02
2018-06-03T17:30:31.514Z,98178.23
2018-06-03T17:32:43.967Z,98173.61
2018-06-03T17:34:56.318Z,98167.55
2018-06-03T17:37:08.719Z,98167.22
2018-06-03T17:39:21.112Z,98164.37
2018-06-03T17:41:33.463Z,98161.81
2018-06-03T17:43:45.880Z,98156.25
2018-06-03T17:45:58.355Z,98157.98
2018-06-03T17:48:10.793Z,98155.70
2018-06-03T17:50:23.284Z,98155.17
2018-06-03T17:52:35.722Z,98149.59
2018-06-03T17:54:48.185Z,98141.59
2018-06-03T17:57:00.574Z,98153.08
2018-06-03T17:59:13.002Z,98151.76
2018-06-03T18:01:25.458Z,98146.06
2018-06-03T18:03:37.803Z,98149.34
2018-06-03T18:05:50.154Z,98155.19
2018-06-03T18:08:02.715Z,98151.37
2018-06-03T18:10:15.127Z,98157.61
2018-06-03T18:12:27.536Z,98157.61
2018-06-03T18:14:39.955Z,98154.30
2018-06-03T18:16:52.425Z,98157.79
2018-06-03T18:19:05.086Z,98155.94
2018-06-03T18:21:17.509Z,98156.16
2018-06-03T18:23:29.946Z,98156.75
2018-06-03T18:25:42.327Z,98148.84
2018-06-03T18:27:54.789Z,98147.39
2018-06-03T18:30:07.239Z,98145.75
2018-06-03T18:32:19.736Z,98141.84
2018-06-03T18:34:32.110Z,98146.75
2018-06-03T18:36:44.552Z,98152.81
2018-06-03T18:38:56.880Z,98150.41
2018-06-03T18:41:09.328Z,98145.74
2018-06-03T18:43:21.779Z,98141.91
2018-06-03T18:45:34.227Z,98144.88
2018-06-03T18:47:46.675Z,98146.55
2018-06-03T18:49:59.044Z,98145.30
2018-06-03T18:52:11.492Z,98145.64
2018-06-03T18:54:23.915Z,98140.50
2018-06-03T18:56:36.263Z,98130.39
2018-06-03T18:58:48.811Z,98133.48
2018-06-03T19:01:01.228Z,98133.87
2018-06-03T19:03:13.825Z,98127.59
2018-06-03T19:05:26.383Z,98135.34
2018-06-03T19:07:38.791Z,98130.20
2018-06-03T19:09:51.350Z,98130.30
2018-06-03T19:12:03.986Z,98125.47
2018-06-03T19:14:16.562Z,98125.28
2018-06-03T19:16:28.984Z,98128.62
2018-06-03T19:18:41.527Z,98124.04
2018-06-03T19:20:54.078Z,98132.83
2018-06-03T19:23:06.589Z,98135.39
2018-06-03T19:25:19.091Z,98140.55
2018-06-03T19:27:31.573Z,98141.02
2018-06-03T19:29:44.027Z,98145.34
2018-06-03T19:31:56.473Z,98142.94
2018-06-03T19:34:09.017Z,98139.20
2018-06-03T19:36:21.517Z,98139.96
2018-06-03T19:38:34.098Z,98137.55
2018-06-03T19:40:46.532Z,98138.78
2018-06-03T19:42:59.045Z,98136.88
2018-06-03T19:45:11.548Z,98143.95
2018-06-03T19:47:24.003Z,98144.55
2018-06-03T19:49:36.575Z,98148.02
2018-06-03T19:51:48.948Z,98147.92
2018-06-03T19:54:01.319Z,98146.33
2018-06-03T19:56:13.768Z,98149.20
2018-06-03T19:58:26.206Z,98151.70
2018-06-03T20:00:38.609Z,98157.05
2018-06-03T20:02:51.080Z,98163.20
2018-06-03T20:05:03.544Z,98165.83
2018-06-03T20:07:16.053Z,98165.50
2018-06-03T20:09:28.497Z,98168.02
2018-06-03T20:11:40.879Z,98170.83
2018-06-03T20:13:53.366Z,98168.84
2018-06-03T20:16:05.827Z,98168.54
2018-06-03T20:18:18.462Z,98170.85
2018-06-03T20:20:30.847Z,98168.23
2018-06-03T20:22:43.214Z,98164.59
2018-06-03T20:24:55.635Z,98164.61
2018-06-03T20:27:08.105Z,98170.73
2018-06-03T20:29:20.596Z,98169.89
2018-06-03T20:31:33.080Z,98177.52
2018-06-03T20:33:45.512Z,98177.34
2018-06-03T20:35:59.101Z,98172.20
2018-06-03T20:38:11.553Z,98177.34
2018-06-03T21:15:16.088Z,98177.22
2018-06-03T21:17:41.092Z,98174.87
2018-06-03T21:20:08.093Z,98173.34
2018-06-03T21:22:33.054Z,98174.95
2018-06-03T21:24:46.186Z,98167.83
2018-06-03T21:26:58.543Z,98163.70
2018-06-03T21:29:10.989Z,98171.48
2018-06-03T21:31:23.412Z,98169.81
2018-06-03T21:33:35.873Z,98173.16
2018-06-03T21:35:48.263Z,98175.78
2018-06-03T21:38:00.654Z,98171.19
2018-06-03T21:40:13.088Z,98176.80
2018-06-03T21:42:25.544Z,98173.83
2018-06-03T21:44:38.174Z,98171.64
2018-06-03T21:46:50.564Z,98173.63
2018-06-03T21:49:02.910Z,98177.72
2018-06-03T21:51:15.407Z,98172.41
2018-06-03T21:53:27.721Z,98169.53
2018-06-03T21:55:40.109Z,98170.60
2018-06-03T21:57:52.470Z,98171.16
2018-06-03T22:00:05.609Z,98170.50
2018-06-03T22:02:18.282Z,98165.58
2018-06-03T22:04:30.692Z,98172.17
2018-06-03T22:06:43.121Z,98168.22
2018-06-03T22:08:55.522Z,98174.13
2018-06-03T22:11:07.935Z,98172.94
2018-06-03T22:13:20.278Z,98170.91
2018-06-03T22:15:32.773Z,98174.15
2018-06-03T22:17:45.198Z,98169.05
2018-06-03T22:19:57.603Z,98170.77
2018-06-03T22:22:10.102Z,98172.55
2018-06-03T22:24:22.580Z,98167.58
2018-06-03T22:26:35.011Z,98171.23
2018-06-03T22:28:47.396Z,98168.27
2018-06-03T22:30:59.955Z,98167.74
2018-06-03T22:33:12.362Z,98165.63
2018-06-03T22:35:24.882Z,98156.56
2018-06-03T22:37:37.262Z,98158.55
2018-06-03T22:39:49.641Z,98156.05
2018-06-03T22:42:02.006Z,98161.16
2018-06-03T22:44:14.396Z,98164.72
2018-06-03T22:46:26.838Z,98151.67
2018-06-03T22:48:39.526Z,98154.87
2018-06-03T22:50:51.871Z,98151.44
2018-06-03T22:53:04.333Z,98158.62
2018-06-03T22:55:16.743Z,98159.23
2018-06-03T22:57:41.699Z,98155.45
2018-06-03T22:59:54.138Z,98153.11
2018-06-03T23:02:06.591Z,98148.67
2018-06-03T23:04:19.019Z,98158.05
2018-06-03T23:06:31.588Z,98157.06
2018-06-03T23:08:43.976Z,98157.22
2018-06-03T23:10:56.379Z,98151.76
2018-06-03T23:13:08.814Z,98154.81
2018-06-03T23:15:21.164Z,98153.45
2018-06-03T23:17:33.561Z,98153.92
2018-06-03T23:19:45.948Z,98153.59
2018-06-03T23:21:58.374Z,98159.14
2018-06-03T23:24:10.760Z,98154.49
2018-06-03T23:26:23.180Z,98154.63
2018-06-03T23:28:35.588Z,98148.37
2018-06-03T23:30:48.768Z,98140.84
2018-06-03T23:33:01.225Z,98138.00
2018-06-03T23:35:13.604Z,98145.08
2018-06-03T23:37:26.125Z,98138.20
2018-06-03T23:39:38.519Z,98134.58
2018-06-03T23:41:50.938Z,98132.00
2018-06-03T23:44:03.420Z,98134.06
2018-06-03T23:46:15.808Z,98129.73
2018-06-03T23:48:28.272Z,98126.36
2018-06-03T23:50:40.678Z,98122.50
2018-06-03T23:52:53.118Z,98122.28
2018-06-03T23:55:05.547Z,98120.80
2018-06-03T23:57:17.995Z,98119.88
2018-06-03T23:59:30.446Z,98110.41
